createdAt,value
2023-05-10T05:01:12.875Z,500.00
2023-05-10T05:02:12.772Z,500.00
2023-05-10T05:03:12.860Z,500.00
2023-05-10T05:04:12.770Z,500.00
2023-05-10T05:05:12.756Z,500.00
2023-05-10T05:06:12.763Z,500.00
2023-05-10T05:07:12.749Z,400.00
2023-05-10T05:08:12.725Z,400.00
2023-05-10T05:09:12.727Z,400.00
2023-05-10T05:10:12.718Z,400.00
2023-05-10T05:11:12.732Z,400.00
2023-05-10T05:12:12.723Z,400.00
2023-05-10T05:13:12.750Z,400.00
2023-05-10T05:14:12.713Z,400.00
2023-05-10T05:15:12.717Z,400.00
2023-05-10T05:16:12.807Z,400.00
2023-05-10T05:17:12.695Z,400.00
2023-05-10T05:18:12.712Z,400.00
2023-05-10T05:19:12.680Z,400.00
2023-05-10T05:20:12.670Z,400.00
2023-05-10T05:21:12.732Z,400.00
2023-05-10T05:22:12.771Z,400.00
2023-05-10T05:23:12.839Z,400.00
2023-05-10T05:24:12.899Z,400.00
2023-05-10T05:25:13.031Z,400.00
2023-05-10T05:26:13.057Z,400.00
2023-05-10T05:27:13.080Z,400.00
2023-05-10T05:28:13.126Z,400.00
2023-05-10T05:29:13.199Z,400.00
2023-05-10T05:30:13.225Z,400.00
2023-05-10T05:31:13.353Z,400.00
2023-05-10T05:32:13.390Z,404.00
2023-05-10T05:33:13.380Z,444.00
2023-05-10T05:34:13.422Z,492.00
2023-05-10T05:35:13.488Z,502.00
2023-05-10T05:36:13.581Z,505.00
2023-05-10T05:37:13.606Z,503.00
2023-05-10T05:38:13.698Z,500.00
2023-05-10T05:39:13.722Z,502.00
2023-05-10T05:40:13.817Z,500.00
2023-05-10T05:41:13.860Z,503.00
2023-05-10T05:42:13.896Z,500.00
2023-05-10T05:43:13.956Z,500.00
2023-05-10T05:44:14.122Z,499.00
2023-05-10T05:45:14.432Z,500.00
2023-05-10T05:46:14.166Z,500.00
2023-05-10T05:47:14.213Z,502.00
2023-05-10T05:48:14.252Z,502.00
2023-05-10T05:49:14.297Z,503.00
2023-05-10T05:50:14.377Z,501.00
2023-05-10T05:51:14.379Z,500.00
2023-05-10T05:52:14.471Z,503.00
2023-05-10T05:53:14.516Z,503.00
2023-05-10T05:54:14.644Z,511.00
2023-05-10T05:55:14.781Z,511.00
2023-05-10T05:56:14.709Z,501.00
2023-05-10T05:57:14.768Z,501.00
2023-05-10T05:58:14.751Z,501.00
2023-05-10T05:59:14.815Z,504.00
2023-05-10T06:00:14.910Z,508.00
2023-05-10T06:01:14.921Z,510.00
2023-05-10T06:02:14.989Z,513.00
2023-05-10T06:03:15.078Z,511.00
2023-05-10T06:04:15.162Z,510.00
2023-05-10T06:05:15.270Z,504.00
2023-05-10T06:06:15.197Z,509.00
2023-05-10T06:07:15.226Z,502.00
2023-05-10T06:08:15.272Z,507.00
2023-05-10T06:09:15.298Z,505.00
2023-05-10T06:10:15.352Z,503.00
2023-05-10T06:11:15.391Z,500.00
2023-05-10T06:12:15.400Z,504.00
2023-05-10T06:13:15.545Z,501.00
2023-05-10T06:14:15.481Z,502.00
2023-05-10T06:15:15.721Z,500.00
2023-05-10T06:16:15.672Z,502.00
2023-05-10T06:17:15.637Z,510.00
2023-05-10T06:18:15.666Z,516.00
2023-05-10T06:19:15.754Z,527.00
2023-05-10T06:20:15.812Z,534.00
2023-05-10T06:21:15.869Z,534.00
2023-05-10T06:22:15.860Z,544.00
2023-05-10T06:23:15.901Z,538.00
2023-05-10T06:24:15.979Z,543.00
2023-05-10T06:25:16.293Z,536.00
2023-05-10T06:26:16.029Z,527.00
2023-05-10T06:27:16.115Z,518.00
2023-05-10T06:28:16.136Z,520.00
2023-05-10T06:29:16.295Z,520.00
2023-05-10T06:30:16.216Z,523.00
2023-05-10T06:31:16.289Z,524.00
2023-05-10T06:32:16.290Z,529.00
2023-05-10T06:33:16.341Z,527.00
2023-05-10T06:34:16.388Z,534.00
2023-05-10T06:35:16.677Z,530.00
2023-05-10T06:36:16.496Z,528.00
2023-05-10T06:37:16.562Z,531.00
2023-05-10T06:38:16.612Z,542.00
2023-05-10T06:39:16.634Z,542.00
2023-05-10T06:40:16.677Z,550.00
2023-05-10T06:41:16.759Z,546.00
2023-05-10T06:42:16.790Z,563.00
2023-05-10T06:43:16.832Z,549.00
2023-05-10T06:44:16.896Z,546.00
2023-05-10T06:45:17.337Z,548.00
2023-05-10T06:46:16.989Z,551.00
2023-05-10T06:47:17.058Z,555.00
2023-05-10T06:48:17.115Z,565.00
2023-05-10T06:49:17.184Z,566.00
2023-05-10T06:50:17.206Z,558.00
2023-05-10T06:51:17.248Z,559.00
2023-05-10T06:52:17.335Z,566.00
2023-05-10T06:53:17.327Z,567.00
2023-05-10T06:54:17.394Z,568.00
2023-05-10T06:55:17.640Z,571.00
2023-05-10T06:56:17.504Z,583.00
2023-05-10T06:57:30.700Z,593.00
2023-05-10T06:58:18.506Z,593.00
2023-05-10T06:59:17.538Z,593.00
2023-05-10T07:00:17.762Z,594.00
2023-05-10T07:01:17.640Z,596.00
2023-05-10T07:02:17.592Z,599.00
2023-05-10T07:03:17.576Z,607.00
2023-05-10T07:04:17.513Z,623.00
2023-05-10T07:05:17.686Z,613.00
2023-05-10T07:06:29.377Z,605.00
2023-05-10T07:07:18.452Z,605.00
2023-05-10T07:08:17.454Z,605.00
2023-05-10T07:09:17.436Z,581.00
2023-05-10T07:10:17.464Z,565.00
2023-05-10T07:11:17.471Z,556.00
2023-05-10T07:12:17.533Z,533.00
2023-05-10T07:13:17.461Z,515.00
2023-05-10T07:14:17.395Z,507.00
2023-05-10T07:15:17.632Z,504.00
2023-05-10T07:16:17.404Z,507.00
2023-05-10T07:17:17.426Z,499.00
2023-05-10T07:18:17.479Z,499.00
2023-05-10T07:19:17.357Z,506.00
2023-05-10T07:20:17.337Z,514.00
2023-05-10T07:21:17.344Z,500.00
2023-05-10T07:22:17.335Z,506.00
2023-05-10T07:23:17.702Z,506.00
2023-05-10T07:24:17.471Z,501.00
2023-05-10T07:25:17.729Z,505.00
2023-05-10T07:26:17.512Z,507.00
2023-05-10T07:27:17.592Z,506.00
2023-05-10T07:28:17.639Z,511.00
2023-05-10T07:29:17.662Z,500.00
2023-05-10T07:30:17.738Z,500.00
2023-05-10T07:31:17.910Z,500.00
2023-05-10T07:32:17.858Z,500.00
2023-05-10T07:33:17.933Z,514.00
2023-05-10T07:34:17.929Z,534.00
2023-05-10T07:35:18.078Z,563.00
2023-05-10T07:36:18.000Z,566.00
2023-05-10T07:37:18.067Z,559.00
2023-05-10T07:38:18.109Z,552.00
2023-05-10T07:39:26.646Z,550.00
2023-05-10T07:40:19.265Z,551.00
2023-05-10T07:41:18.167Z,550.00
2023-05-10T07:42:18.135Z,530.00
2023-05-10T07:43:18.136Z,513.00
2023-05-10T07:44:18.131Z,501.00
2023-05-10T07:45:18.278Z,528.00
2023-05-10T07:46:18.152Z,525.00
2023-05-10T07:47:18.096Z,525.00
2023-05-10T07:48:18.112Z,532.00
2023-05-10T07:49:18.134Z,541.00
2023-05-10T07:50:18.101Z,547.00
2023-05-10T07:51:18.092Z,556.00
2023-05-10T07:52:18.089Z,560.00
2023-05-10T07:53:18.108Z,563.00
2023-05-10T07:54:18.455Z,565.00
2023-05-10T07:55:18.389Z,561.00
2023-05-10T07:56:18.222Z,546.00
2023-05-10T07:57:18.244Z,537.00
2023-05-10T07:58:18.277Z,551.00
2023-05-10T07:59:18.421Z,549.00
2023-05-10T08:00:18.344Z,572.00
2023-05-10T08:01:18.309Z,566.00
2023-05-10T08:02:18.461Z,564.00
2023-05-10T08:03:18.525Z,573.00
2023-05-10T08:04:18.509Z,575.00
2023-05-10T08:05:18.677Z,581.00
2023-05-10T08:06:18.452Z,589.00
2023-05-10T08:07:18.407Z,597.00
2023-05-10T08:08:18.450Z,604.00
2023-05-10T08:09:18.449Z,611.00
2023-05-10T08:10:18.402Z,618.00
2023-05-10T08:11:18.477Z,621.00
2023-05-10T08:12:18.448Z,610.00
2023-05-10T08:13:18.419Z,614.00
2023-05-10T08:14:18.447Z,613.00
2023-05-10T08:15:18.692Z,624.00
2023-05-10T08:16:18.472Z,627.00
2023-05-10T08:17:19.764Z,633.00
2023-05-10T08:18:18.602Z,639.00
2023-05-10T08:19:18.427Z,625.00
2023-05-10T08:20:18.473Z,622.00
2023-05-10T08:21:18.437Z,636.00
2023-05-10T08:22:18.451Z,642.00
2023-05-10T08:23:18.425Z,642.00
2023-05-10T08:24:18.438Z,632.00
2023-05-10T08:25:18.579Z,628.00
2023-05-10T08:26:18.438Z,632.00
2023-05-10T08:27:18.434Z,628.00
2023-05-10T08:28:18.474Z,627.00
2023-05-10T08:29:18.490Z,638.00
2023-05-10T08:30:18.470Z,645.00
2023-05-10T08:31:18.512Z,657.00
2023-05-10T08:32:18.525Z,666.00
2023-05-10T08:33:18.472Z,691.00
2023-05-10T08:34:18.510Z,668.00
2023-05-10T08:35:18.718Z,685.00
2023-05-10T08:36:18.557Z,743.00
2023-05-10T08:37:18.525Z,764.00
2023-05-10T08:38:18.598Z,787.00
2023-05-10T08:39:29.359Z,802.00
2023-05-10T08:40:19.590Z,804.00
2023-05-10T08:41:18.594Z,810.00
2023-05-10T08:42:18.563Z,821.00
2023-05-10T08:43:18.568Z,848.00
2023-05-10T08:44:18.607Z,873.00
2023-05-10T08:45:18.774Z,865.00
2023-05-10T08:46:18.632Z,806.00
2023-05-10T08:47:18.527Z,687.00
2023-05-10T08:48:18.644Z,652.00
2023-05-10T08:49:18.501Z,627.00
2023-05-10T08:50:18.556Z,573.00
2023-05-10T08:51:18.529Z,528.00
2023-05-10T08:52:18.515Z,497.00
2023-05-10T08:53:18.509Z,491.00
2023-05-10T08:54:18.522Z,504.00
2023-05-10T08:55:18.677Z,518.00
2023-05-10T08:56:18.547Z,522.00
2023-05-10T08:57:18.557Z,522.00
2023-05-10T08:58:18.636Z,569.00
2023-05-10T08:59:18.652Z,536.00
2023-05-10T09:00:18.671Z,516.00
2023-05-10T09:01:18.729Z,500.00
2023-05-10T09:02:18.920Z,475.00
2023-05-10T09:03:18.756Z,500.00
2023-05-10T09:04:18.928Z,500.00
2023-05-10T09:05:18.948Z,502.00
2023-05-10T09:06:18.953Z,515.00
2023-05-10T09:07:18.937Z,522.00
2023-05-10T09:08:19.057Z,550.00
2023-05-10T09:09:19.102Z,587.00
2023-05-10T09:10:19.175Z,623.00
2023-05-10T09:11:19.210Z,561.00
2023-05-10T09:12:19.240Z,500.00
2023-05-10T09:13:19.298Z,511.00
2023-05-10T09:14:19.365Z,507.00
2023-05-10T09:15:19.559Z,526.00
2023-05-10T09:16:21.922Z,552.00
2023-05-10T09:17:19.558Z,531.00
2023-05-10T09:18:19.567Z,480.00
2023-05-10T09:19:19.417Z,502.00
2023-05-10T09:20:19.500Z,536.00
2023-05-10T09:21:19.427Z,585.00
2023-05-10T09:22:19.418Z,580.00
2023-05-10T09:23:19.410Z,564.00
2023-05-10T09:24:19.397Z,558.00
2023-05-10T09:25:19.661Z,557.00
2023-05-10T09:26:19.391Z,560.00
2023-05-10T09:27:19.413Z,515.00
2023-05-10T09:28:19.386Z,497.00
2023-05-10T09:29:19.404Z,498.00
2023-05-10T09:30:19.439Z,513.00
2023-05-10T09:31:19.423Z,580.00
2023-05-10T09:32:19.349Z,632.00
2023-05-10T09:33:19.344Z,723.00
2023-05-10T09:34:19.336Z,826.00
2023-05-10T09:35:19.420Z,898.00
2023-05-10T09:36:19.351Z,931.00
2023-05-10T09:37:19.325Z,964.00
2023-05-10T09:38:19.317Z,1040.00
2023-05-10T09:39:19.302Z,1084.00
2023-05-10T09:40:19.277Z,1175.00
2023-05-10T09:41:19.258Z,1162.00
2023-05-10T09:42:19.280Z,1200.00
2023-05-10T09:43:19.300Z,1231.00
2023-05-10T09:44:19.260Z,1227.00
2023-05-10T09:45:19.382Z,1240.00
2023-05-10T09:46:19.292Z,1244.00
2023-05-10T09:47:19.262Z,1265.00
2023-05-10T09:48:19.250Z,1279.00
2023-05-10T09:49:19.221Z,1301.00
2023-05-10T09:50:19.234Z,1322.00
2023-05-10T09:51:19.231Z,1331.00
2023-05-10T09:52:19.190Z,1354.00
2023-05-10T09:53:19.206Z,1378.00
2023-05-10T09:54:19.193Z,1391.00
2023-05-10T09:55:19.232Z,1411.00
2023-05-10T09:56:19.170Z,1438.00
2023-05-10T09:57:19.173Z,1465.00
2023-05-10T09:58:19.164Z,1522.00
2023-05-10T09:59:19.145Z,1543.00
2023-05-10T10:00:19.185Z,1563.00
2023-05-10T10:01:19.164Z,1582.00
2023-05-10T10:02:19.163Z,1594.00
2023-05-10T10:03:19.150Z,1618.00
2023-05-10T10:04:19.167Z,1636.00
2023-05-10T10:05:19.290Z,1652.00
2023-05-10T10:06:29.566Z,1667.00
2023-05-10T10:07:20.206Z,1669.00
2023-05-10T10:08:19.105Z,1675.00
2023-05-10T10:09:19.089Z,1687.00
2023-05-10T10:10:19.097Z,1725.00
2023-05-10T10:11:19.108Z,1749.00
2023-05-10T10:12:19.065Z,1782.00
2023-05-10T10:13:19.082Z,1788.00
2023-05-10T10:14:19.071Z,1796.00
2023-05-10T10:15:19.233Z,1815.00
2023-05-10T10:16:19.052Z,1851.00
2023-05-10T10:17:19.017Z,1867.00
2023-05-10T10:18:19.059Z,1878.00
2023-05-10T10:19:19.011Z,1924.00
2023-05-10T10:20:19.371Z,1954.00
2023-05-10T10:21:18.990Z,1968.00
2023-05-10T10:22:18.976Z,1988.00
2023-05-10T10:23:19.005Z,1991.00
2023-05-10T10:24:18.998Z,1985.00
2023-05-10T10:25:19.164Z,1971.00
2023-05-10T10:26:19.139Z,1978.00
2023-05-10T10:27:19.128Z,1953.00
2023-05-10T10:28:19.170Z,1931.00
2023-05-10T10:29:19.200Z,1939.00
2023-05-10T10:30:19.262Z,1965.00
2023-05-10T10:31:19.349Z,1969.00
2023-05-10T10:32:19.370Z,1989.00
2023-05-10T10:33:27.783Z,1947.00
2023-05-10T10:34:20.406Z,1948.00
2023-05-10T10:35:19.382Z,1951.00
2023-05-10T10:36:20.000Z,1953.00
2023-05-10T10:37:19.358Z,1940.00
2023-05-10T10:38:19.369Z,1922.00
2023-05-10T10:39:19.375Z,1916.00
2023-05-10T10:40:19.352Z,1933.00
2023-05-10T10:41:19.318Z,1965.00
2023-05-10T10:42:19.328Z,1953.00
2023-05-10T10:43:19.333Z,1943.00
2023-05-10T10:44:19.390Z,1883.00
2023-05-10T10:45:19.491Z,1838.00
2023-05-10T10:46:19.497Z,1849.00
2023-05-10T10:47:19.494Z,1827.00
2023-05-10T10:48:19.551Z,1788.00
2023-05-10T10:49:19.565Z,1834.00
2023-05-10T10:50:19.631Z,1832.00
2023-05-10T10:51:19.707Z,1862.00
2023-05-10T10:52:19.707Z,1775.00
2023-05-10T10:53:19.821Z,1653.00
2023-05-10T10:54:19.722Z,1561.00
2023-05-10T10:55:19.941Z,1612.00
2023-05-10T10:56:19.719Z,1608.00
2023-05-10T10:57:19.682Z,1652.00
2023-05-10T10:58:19.719Z,1658.00
2023-05-10T10:59:19.722Z,1664.00
2023-05-10T11:00:19.751Z,1653.00
2023-05-10T11:01:19.790Z,1709.00
2023-05-10T11:02:19.813Z,1729.00
2023-05-10T11:03:19.877Z,1720.00
2023-05-10T11:04:19.884Z,1747.00
2023-05-10T11:05:19.894Z,1768.00
2023-05-10T11:06:19.971Z,1769.00
2023-05-10T11:07:20.005Z,1779.00
2023-05-10T11:08:20.097Z,1803.00
2023-05-10T11:09:20.150Z,1834.00
2023-05-10T11:10:20.165Z,1836.00
2023-05-10T11:11:20.179Z,1849.00
2023-05-10T11:12:20.281Z,1876.00
2023-05-10T11:13:20.324Z,1795.00
2023-05-10T11:14:20.335Z,1782.00
2023-05-10T11:15:20.344Z,1775.00
2023-05-10T11:16:20.414Z,1846.00
2023-05-10T11:17:20.397Z,1865.00
2023-05-10T11:18:20.436Z,1887.00
2023-05-10T11:19:20.405Z,1913.00
2023-05-10T11:20:20.510Z,1903.00
2023-05-10T11:21:20.443Z,1889.00
2023-05-10T11:22:20.491Z,1880.00
2023-05-10T11:23:20.607Z,1823.00
2023-05-10T11:24:20.584Z,1845.00
2023-05-10T11:25:20.656Z,1862.00
2023-05-10T11:26:20.695Z,1900.00
2023-05-10T11:27:20.748Z,1909.00
2023-05-10T11:28:20.876Z,1869.00
2023-05-10T11:29:20.860Z,1852.00
2023-05-10T11:30:21.092Z,1861.00
2023-05-10T11:31:21.044Z,1857.00
2023-05-10T11:32:20.973Z,1896.00
2023-05-10T11:33:22.136Z,1911.00
2023-05-10T11:34:21.118Z,1901.00
2023-05-10T11:35:21.184Z,1937.00
2023-05-10T11:36:21.199Z,1963.00
2023-05-10T11:37:21.262Z,1965.00
2023-05-10T11:38:21.326Z,1998.00
2023-05-10T11:39:21.400Z,1992.00
2023-05-10T11:40:21.564Z,2007.00
2023-05-10T11:41:21.515Z,2024.00
2023-05-10T11:42:21.546Z,2017.00
2023-05-10T11:43:21.610Z,2043.00
2023-05-10T11:44:21.679Z,2060.00
2023-05-10T11:45:21.752Z,2094.00
2023-05-10T11:46:21.828Z,2099.00
2023-05-10T11:47:21.851Z,2104.00
2023-05-10T11:48:21.913Z,2108.00
2023-05-10T11:49:21.962Z,2120.00
2023-05-10T11:50:21.991Z,2125.00
2023-05-10T11:51:22.095Z,2147.00
2023-05-10T11:52:22.155Z,2173.00
2023-05-10T11:53:23.725Z,2160.00
2023-05-10T11:54:22.353Z,2175.00
2023-05-10T11:55:22.425Z,2195.00
2023-05-10T11:56:22.445Z,2202.00
2023-05-10T11:57:22.512Z,2220.00
2023-05-10T11:58:22.568Z,2225.00
2023-05-10T11:59:22.666Z,2233.00
2023-05-10T12:00:22.671Z,2241.00
2023-05-10T12:01:22.717Z,2277.00
2023-05-10T12:02:22.819Z,2271.00
2023-05-10T12:03:22.842Z,2257.00
2023-05-10T12:04:22.985Z,2277.00
2023-05-10T12:05:22.882Z,2276.00
2023-05-10T12:06:22.940Z,2289.00
2023-05-10T12:07:22.965Z,2300.00
2023-05-10T12:08:23.005Z,2294.00
2023-05-10T12:09:39.556Z,2261.00
2023-05-10T12:10:24.066Z,2236.00
2023-05-10T12:11:23.033Z,2240.00
2023-05-10T12:12:23.030Z,2207.00
2023-05-10T12:13:23.030Z,2199.00
2023-05-10T12:14:23.057Z,2138.00
2023-05-10T12:15:23.010Z,2132.00
2023-05-10T12:16:23.040Z,2118.00
2023-05-10T12:17:22.982Z,2152.00
2023-05-10T12:18:22.981Z,2069.00
2023-05-10T12:19:22.998Z,2039.00
2023-05-10T12:20:23.025Z,1929.00
2023-05-10T12:21:23.129Z,1603.00
2023-05-10T12:22:23.138Z,1355.00
2023-05-10T12:23:23.106Z,1242.00
2023-05-10T12:24:23.187Z,1068.00
2023-05-10T12:25:23.211Z,1056.00
2023-05-10T12:26:23.246Z,894.00
2023-05-10T12:27:23.293Z,897.00
2023-05-10T12:28:23.381Z,1044.00
2023-05-10T12:29:23.446Z,1160.00
2023-05-10T12:30:23.475Z,1228.00
2023-05-10T12:31:23.510Z,1218.00
2023-05-10T12:32:23.550Z,1193.00
2023-05-10T12:33:23.578Z,1046.00
2023-05-10T12:34:23.637Z,1092.00
2023-05-10T12:35:23.703Z,1103.00
2023-05-10T12:36:23.760Z,996.00
2023-05-10T12:37:23.785Z,932.00
2023-05-10T12:38:23.858Z,1144.00
2023-05-10T12:39:23.890Z,1349.00
2023-05-10T12:40:23.989Z,1239.00
2023-05-10T12:41:24.025Z,960.00
2023-05-10T12:42:24.103Z,1007.00
2023-05-10T12:43:24.145Z,930.00
2023-05-10T12:44:24.191Z,1133.00
2023-05-10T12:45:24.148Z,1020.00
2023-05-10T12:46:24.301Z,930.00
2023-05-10T12:47:24.207Z,994.00
2023-05-10T12:48:24.231Z,935.00
2023-05-10T12:49:24.265Z,990.00
2023-05-10T12:50:24.332Z,1124.00
2023-05-10T12:51:24.370Z,1127.00
2023-05-10T12:52:24.456Z,1112.00
2023-05-10T12:53:24.517Z,1133.00
2023-05-10T12:54:24.528Z,1164.00
2023-05-10T12:55:24.490Z,1232.00
2023-05-10T12:56:24.503Z,1316.00
2023-05-10T12:57:24.546Z,1296.00
2023-05-10T12:58:35.068Z,1258.00
2023-05-10T12:59:25.563Z,1223.00
2023-05-10T13:00:24.582Z,1190.00
2023-05-10T13:01:24.665Z,1174.00
2023-05-10T13:02:24.580Z,1160.00
2023-05-10T13:03:24.555Z,1250.00
2023-05-10T13:04:26.271Z,1347.00
2023-05-10T13:05:24.535Z,1435.00
2023-05-10T13:06:24.504Z,1492.00
2023-05-10T13:07:24.510Z,1417.00
2023-05-10T13:08:24.550Z,1418.00
2023-05-10T13:09:24.559Z,1487.00
2023-05-10T13:10:24.494Z,1539.00
2023-05-10T13:11:24.524Z,1430.00
2023-05-10T13:12:24.528Z,1478.00
2023-05-10T13:13:24.552Z,1514.00
2023-05-10T13:14:24.591Z,1549.00
2023-05-10T13:15:24.670Z,1584.00
2023-05-10T13:16:24.817Z,1612.00
2023-05-10T13:17:24.768Z,1648.00
2023-05-10T13:18:25.018Z,1666.00
2023-05-10T13:19:24.884Z,1684.00
2023-05-10T13:20:24.840Z,1649.00
2023-05-10T13:21:24.906Z,1557.00
2023-05-10T13:22:36.492Z,1555.00
2023-05-10T13:23:25.858Z,1556.00
2023-05-10T13:24:24.938Z,1493.00
2023-05-10T13:25:24.917Z,1424.00
2023-05-10T13:26:24.860Z,1426.00
2023-05-10T13:27:24.889Z,1518.00
2023-05-10T13:28:24.830Z,1574.00
2023-05-10T13:29:24.890Z,1537.00
2023-05-10T13:30:24.837Z,1543.00
2023-05-10T13:31:24.947Z,1571.00
2023-05-10T13:32:24.835Z,1582.00
2023-05-10T13:33:24.814Z,1562.00
2023-05-10T13:34:24.859Z,1537.00
2023-05-10T13:35:24.844Z,1560.00
2023-05-10T13:36:24.793Z,1547.00
2023-05-10T13:37:24.818Z,1522.00
2023-05-10T13:38:24.777Z,1532.00
2023-05-10T13:39:24.804Z,1511.00
2023-05-10T13:40:24.787Z,1515.00
2023-05-10T13:41:24.799Z,1501.00
2023-05-10T13:42:24.756Z,1488.00
2023-05-10T13:43:24.798Z,1465.00
2023-05-10T13:44:24.799Z,1462.00
2023-05-10T13:45:24.810Z,1465.00
2023-05-10T13:46:24.840Z,1460.00
2023-05-10T13:47:25.035Z,1393.00
2023-05-10T13:48:24.868Z,1420.00
2023-05-10T13:49:24.904Z,1464.00
2023-05-10T13:50:24.887Z,1426.00
2023-05-10T13:51:24.975Z,1420.00
2023-05-10T13:52:25.043Z,1429.00
2023-05-10T13:53:25.069Z,1407.00
2023-05-10T13:54:25.149Z,1396.00
2023-05-10T13:55:25.212Z,1394.00
2023-05-10T13:56:25.232Z,1390.00
2023-05-10T13:57:25.296Z,1397.00
2023-05-10T13:58:25.393Z,1397.00
2023-05-10T13:59:25.427Z,1404.00
2023-05-10T14:00:25.477Z,1417.00
2023-05-10T14:01:25.545Z,1433.00
2023-05-10T14:02:25.779Z,1439.00
2023-05-10T14:03:25.710Z,1418.00
2023-05-10T14:04:25.698Z,1429.00
2023-05-10T14:05:26.671Z,1420.00
2023-05-10T14:06:25.799Z,1426.00
2023-05-10T14:07:25.847Z,1430.00
2023-05-10T14:08:25.886Z,1462.00
2023-05-10T14:09:25.917Z,1478.00
2023-05-10T14:10:25.947Z,1502.00
2023-05-10T14:11:25.977Z,1528.00
2023-05-10T14:12:26.001Z,1550.00
2023-05-10T14:13:26.028Z,1543.00
2023-05-10T14:14:26.092Z,1581.00
2023-05-10T14:15:26.145Z,1576.00
2023-05-10T14:16:26.211Z,1597.00
2023-05-10T14:17:26.208Z,1629.00
2023-05-10T14:18:26.268Z,1625.00
2023-05-10T14:19:26.252Z,1606.00
2023-05-10T14:20:26.293Z,1647.00
2023-05-10T14:21:26.311Z,1643.00
2023-05-10T14:22:26.311Z,1644.00
2023-05-10T14:23:26.353Z,1658.00
2023-05-10T14:24:26.396Z,1661.00
2023-05-10T14:25:26.430Z,1658.00
2023-05-10T14:26:26.503Z,1680.00
2023-05-10T14:27:26.479Z,1683.00
2023-05-10T14:28:26.541Z,1699.00
2023-05-10T14:29:26.593Z,1686.00
2023-05-10T14:30:26.527Z,1706.00
2023-05-10T14:31:26.584Z,1705.00
2023-05-10T14:32:26.579Z,1715.00
2023-05-10T14:33:26.594Z,1703.00
2023-05-10T14:34:26.609Z,1707.00
2023-05-10T14:35:26.605Z,1696.00
2023-05-10T14:36:26.768Z,1686.00
2023-05-10T14:37:26.626Z,1701.00
2023-05-10T14:38:26.679Z,1698.00
2023-05-10T14:39:26.673Z,1728.00
2023-05-10T14:40:26.673Z,1739.00
2023-05-10T14:41:26.743Z,1772.00
2023-05-10T14:42:26.762Z,1753.00
2023-05-10T14:43:26.766Z,1762.00
2023-05-10T14:44:26.732Z,1774.00
2023-05-10T14:45:26.757Z,1780.00
2023-05-10T14:46:26.925Z,1785.00
2023-05-10T14:47:26.877Z,1781.00
2023-05-10T14:48:26.781Z,1767.00
2023-05-10T14:49:26.943Z,1761.00
2023-05-10T14:51:27.811Z,1777.00
2023-05-10T14:52:26.801Z,1777.00
2023-05-10T14:53:26.803Z,1652.00
2023-05-10T14:54:26.778Z,1631.00
2023-05-10T14:55:26.754Z,1690.00
2023-05-10T14:56:26.746Z,1704.00
2023-05-10T14:57:26.758Z,1643.00
2023-05-10T14:58:26.760Z,1570.00
2023-05-10T14:59:26.761Z,1526.00
2023-05-10T15:00:26.739Z,1541.00
2023-05-10T15:01:26.788Z,1554.00
2023-05-10T15:02:26.736Z,1597.00
2023-05-10T15:03:26.899Z,1598.00
2023-05-10T15:04:28.399Z,1654.00
2023-05-10T15:05:26.669Z,1645.00
2023-05-10T15:06:26.690Z,1690.00
2023-05-10T15:07:26.706Z,1691.00
2023-05-10T15:08:26.689Z,1708.00
2023-05-10T15:09:26.689Z,1715.00
2023-05-10T15:10:26.690Z,1734.00
2023-05-10T15:11:26.637Z,1682.00
2023-05-10T15:12:26.649Z,1679.00
2023-05-10T15:13:26.653Z,1710.00
2023-05-10T15:14:26.642Z,1714.00
2023-05-10T15:15:26.646Z,1665.00
2023-05-10T15:16:26.719Z,1646.00
2023-05-10T15:17:26.655Z,1649.00
2023-05-10T15:18:26.654Z,1641.00
2023-05-10T15:19:26.579Z,1637.00
2023-05-10T15:20:26.578Z,1591.00
2023-05-10T15:21:26.606Z,735.00
2023-05-10T15:22:26.595Z,542.00
2023-05-10T15:23:26.623Z,495.00
2023-05-10T15:24:26.558Z,500.00
2023-05-10T15:25:26.535Z,500.00
2023-05-10T15:26:26.552Z,503.00
2023-05-10T15:27:26.526Z,608.00
2023-05-10T15:28:26.547Z,790.00
2023-05-10T15:29:26.520Z,904.00
2023-05-10T15:30:26.518Z,1003.00
2023-05-10T15:31:26.586Z,1106.00
2023-05-10T15:32:26.545Z,1188.00
2023-05-10T15:33:26.503Z,1281.00
2023-05-10T15:34:26.498Z,1305.00
2023-05-10T15:35:26.469Z,1454.00
2023-05-10T15:36:26.461Z,1514.00
2023-05-10T15:37:26.448Z,1517.00
2023-05-10T15:38:26.465Z,1533.00
2023-05-10T15:39:26.448Z,1507.00
2023-05-10T15:40:26.454Z,1531.00
2023-05-10T15:41:26.441Z,1553.00
2023-05-10T15:42:26.459Z,1545.00
2023-05-10T15:43:26.423Z,1574.00
2023-05-10T15:44:26.429Z,1634.00
2023-05-10T15:45:26.421Z,1634.00
2023-05-10T15:46:26.427Z,1660.00
2023-05-10T15:47:26.410Z,1689.00
2023-05-10T15:48:26.381Z,1676.00
2023-05-10T15:49:26.371Z,1688.00
2023-05-10T15:50:26.385Z,1700.00
2023-05-10T15:51:26.383Z,1729.00
2023-05-10T15:52:26.393Z,1747.00
2023-05-10T15:53:26.339Z,1776.00
2023-05-10T15:54:26.350Z,1819.00
2023-05-10T15:55:26.351Z,1843.00
2023-05-10T15:56:26.322Z,1865.00
2023-05-10T15:57:26.360Z,1863.00
2023-05-10T15:58:26.399Z,1923.00
2023-05-10T15:59:26.469Z,1940.00
2023-05-10T16:00:26.478Z,1967.00
2023-05-10T16:01:26.612Z,1966.00
2023-05-10T16:02:26.662Z,1995.00
2023-05-10T16:03:26.742Z,2013.00
2023-05-10T16:04:26.676Z,2025.00
2023-05-10T16:05:26.737Z,2042.00
2023-05-10T16:06:26.889Z,2072.00
2023-05-10T16:07:26.848Z,2072.00
2023-05-10T16:08:26.894Z,2075.00
2023-05-10T16:09:26.938Z,2059.00
2023-05-10T16:10:26.966Z,2053.00
2023-05-10T16:11:27.033Z,2046.00
2023-05-10T16:12:27.087Z,2045.00
2023-05-10T16:13:27.134Z,2059.00
2023-05-10T16:14:27.161Z,2038.00
2023-05-10T16:15:27.172Z,2047.00
2023-05-10T16:16:27.263Z,2059.00
2023-05-10T16:17:27.316Z,2040.00
2023-05-10T16:18:27.429Z,2039.00
2023-05-10T16:19:29.694Z,2039.00
2023-05-10T16:20:27.575Z,2037.00
2023-05-10T16:21:27.618Z,2048.00
2023-05-10T16:22:27.656Z,2037.00
2023-05-10T16:23:27.720Z,2045.00
2023-05-10T16:24:27.744Z,2063.00
2023-05-10T16:25:27.815Z,2038.00
2023-05-10T16:26:27.839Z,2048.00
2023-05-10T16:27:27.904Z,2053.00
2023-05-10T16:28:27.922Z,2049.00
2023-05-10T16:29:27.949Z,2042.00
2023-05-10T16:30:27.960Z,2043.00
2023-05-10T16:31:28.113Z,2037.00
2023-05-10T16:32:28.106Z,2051.00
2023-05-10T16:33:28.120Z,2044.00
2023-05-10T16:34:28.130Z,2041.00
2023-05-10T16:35:28.211Z,2049.00
2023-05-10T16:36:29.518Z,2046.00
2023-05-10T16:37:28.252Z,2050.00
2023-05-10T16:38:28.340Z,2034.00
2023-05-10T16:39:28.347Z,2048.00
2023-05-10T16:40:28.382Z,2035.00
2023-05-10T16:41:28.404Z,2030.00
2023-05-10T16:42:28.445Z,2043.00
2023-05-10T16:43:28.479Z,2043.00
2023-05-10T16:44:28.482Z,2033.00
2023-05-10T16:45:28.549Z,2029.00
2023-05-10T16:46:28.647Z,2054.00
2023-05-10T16:47:28.613Z,2034.00
2023-05-10T16:48:28.662Z,2042.00
2023-05-10T16:49:28.681Z,2037.00
2023-05-10T16:50:28.711Z,2048.00
2023-05-10T16:51:28.756Z,2042.00
2023-05-10T16:52:28.805Z,2045.00
2023-05-10T16:53:28.839Z,2043.00
2023-05-10T16:54:28.842Z,2022.00
2023-05-10T16:55:28.889Z,2034.00
2023-05-10T16:56:28.919Z,2029.00
2023-05-10T16:57:29.003Z,2023.00
2023-05-10T16:58:29.042Z,2027.00
2023-05-10T16:59:29.060Z,2027.00
2023-05-10T17:00:29.096Z,2018.00
